METAR stanice u blizini

 

LYBE - Beograd / Surčin, Srbija
Ažurirano: 19/05/2024 04:00
Vedro
Vedro
 Pravac vetra I
Vetar: I 15 km/h
Temperatura: 19°C
Tačka rose: 13°C
Vlažnost: 68%
Pritisak: 1011 hPa
Pregled: Vedro
Vidljivost: greater than 10 km
2024/05/19 02:00 LYBE 190200Z 10008KT CAVOK 19/13 Q1011 NOSIG
LYBT - Beograd / Batajnica, Srbija
Ažurirano: 19/05/2024 04:00
Vedro
Vedro
 Pravac vetra I
Vetar: I 13 km/h
Temperatura: 18°C
Tačka rose: 14°C
Vlažnost: 78%
Pritisak: 1011 hPa
Pregled: Vedro
Vidljivost: greater than 10 km
2024/05/19 02:00 LYBT 190200Z 10007KT CAVOK 18/14 Q1011 NOSIG
LYVR - Vršac, Srbija
Ažurirano: 19/05/2024 04:00
Vedro
Vedro
 Pravac vetra JI
Vetar: JI 43 km/h
Temperatura: 20°C
Tačka rose: 12°C
Vlažnost: 60%
Pritisak: 1011 hPa
Pregled: Vedro
Vidljivost: greater than 10 km
2024/05/19 02:00 LYVR 190200Z AUTO 14023KT CAVOK 20/12 Q1011
 
LYKV - Lađevci, Srbija
Ažurirano: 19/05/2024 04:00
Partly Cloudy
Partly Cloudy
 Pravac vetra calm
Vetar: Tišina
Temperatura: 16°C
Tačka rose: 16°C
Vlažnost: 100%
Pritisak: 1012 hPa
Oblaci: Partly Cloudy
Vidljivost: 6 km
2024/05/19 02:00 LYKV 190200Z 00000KT 6000 NSC 16/16 Q1012 NOSIG
LYNI - Niš, Srbija
Ažurirano: 19/05/2024 04:00
Rain showers, Pretežno oblačno
Rain showers, Pretežno oblačno
 Pravac vetra SSZ
Vetar: SSZ 6 km/h
Temperatura: 17°C
Tačka rose: 16°C
Vlažnost: 94%
Pritisak: 1014 hPa
Pregled: Rain Showers
Oblaci: Mostly Cloudy
Vidljivost: 8 km
Cloud details: Few Clouds 457 m
Partly Cloudy 823 m
Mostly Cloudy 1219 m
2024/05/19 02:00 LYNI 190200Z 34003KT 8000 SHRA FEW015 SCT027TCU BKN040 17/16 Q1014 NOSIG
BKPR - Priština, Srbija
Ažurirano: 19/05/2024 04:00
Slaba kiša, Delimično oblačno
Slaba kiša, Delimično oblačno
 Pravac vetra SSI
Vetar: SSI 6 km/h
Temperatura: 16°C
Tačka rose: 16°C
Vlažnost: 100%
Pritisak: 1014 hPa
Pregled: Light Rain
Oblaci: Partly Cloudy
Vidljivost: 10 km
Cloud details: Partly Cloudy 610 m
2024/05/19 02:00 BKPR 190200Z 03003KT 9999 -RA SCT020 16/16 Q1014 NOSIG
 
LHPP - Pecs / Pogany, Hungary
Ažurirano: 19/05/2024 03:45
Vedro
Vedro
 Pravac vetra ISI
Vetar: ISI 9 km/h
Temperatura: 16°C
Tačka rose: 11°C
Vlažnost: 72%
Pritisak: 1011 hPa
Pregled: Vedro
Vidljivost: greater than 10 km
2024/05/19 01:45 LHPP 190145Z AUTO 06005KT CAVOK 16/11 Q1011
LHUD - Szeged, Hungary
Ažurirano: 04/07/2019 01:45
NOT Current
Vedro
Vedro
 Pravac vetra S
Vetar: S 7 km/h
Temperatura: 18°C
Tačka rose: 13°C
Vlažnost: 73%
Pritisak: 1019 hPa
Pregled: Vedro
Vidljivost: greater than 10 km
2019/07/03 23:45 LHUD 032345Z 35004KT CAVOK 18/13 Q1019
LRTR - Timisoara, Romania
Ažurirano: 19/05/2024 04:00
Vedro
Vedro
 Pravac vetra IJI
Vetar: IJI 13 km/h
Temperatura: 14°C
Tačka rose: 12°C
Vlažnost: 88%
Pritisak: 1012 hPa
Pregled: Vedro
Vidljivost: greater than 10 km
2024/05/19 02:00 LRTR 190200Z 11007KT CAVOK 14/12 Q1012 NOSIG
 
LRCV - Craiova, Romania
Ažurirano: 19/05/2024 04:00
Slaba kiša, Delimično oblačno
Slaba kiša, Delimično oblačno
 Pravac vetra SI
Vetar: SI 15 km/h
Temperatura: 14°C
Tačka rose: 12°C
Vlažnost: 88%
Pritisak: 1014 hPa
Pregled: Light Rain
Oblaci: Partly Cloudy
Vidljivost: 10 km
2024/05/19 02:00 LRCV 190200Z 05008KT 9999 -RA NSC 14/12 Q1014
LBSF - Sofia, Bulgaria
Ažurirano: 19/05/2024 04:00
Slaba kiša, Delimično oblačno
Slaba kiša, Delimično oblačno
 Pravac vetra I
Vetar: I 7 km/h
Temperatura: 15°C
Tačka rose: 14°C
Vlažnost: 94%
Pritisak: 1014 hPa
Pregled: Light Rain
Oblaci: Partly Cloudy
Vidljivost: 10 km
Cloud details: Few Clouds 1189 m
Partly Cloudy 1433 m
2024/05/19 02:00 LBSF 190200Z AUTO 10004KT 9999 -RA FEW039/// SCT047/// 15/14 Q1014 TEMPO 5000 RA
LWSK - Skoplje, Makedonija
Ažurirano: 19/05/2024 03:50
Slaba kiša, Oblačno
Slaba kiša, Oblačno
 Pravac vetra varies
Vetar: varies 4 km/h
Temperatura: 17°C
Tačka rose: 17°C
Vlažnost: 100%
Pritisak: 1013 hPa
Pregled: Light Rain
Oblaci: Oblačno
Vidljivost: 8 km
Cloud details: Partly Cloudy 457 m
Mostly Cloudy 1067 m
Oblačno 2438 m
2024/05/19 01:50 LWSK 190150Z VRB02KT 8000 -RA SCT015 BKN035 OVC080 17/17 Q1013 NOSIG
 
LYPG - Podgorica, Crna Gora
Ažurirano: 19/05/2024 04:00
Mostly Cloudy
Mostly Cloudy
 Pravac vetra calm
Vetar: Tišina
Temperatura: 19°C
Tačka rose: 19°C
Vlažnost: 100%
Pritisak: 1012 hPa
Oblaci: Mostly Cloudy
Vidljivost: 10 km
Cloud details: Few Clouds 305 m
Mostly Cloudy 1219 m
Mostly Cloudy 2438 m
2024/05/19 02:00 LYPG 190200Z 00000KT 9999 FEW010 BKN040 BKN080 19/19 Q1012 NOSIG
LQSA - Sarajevo, Bosna i Hercegovina
Ažurirano: 19/05/2024 04:00
Vedro
Vedro
 Pravac vetra varies
Vetar: varies 4 km/h
Temperatura: 14°C
Tačka rose: 12°C
Vlažnost: 88%
Pritisak: 1013 hPa
Pregled: Vedro
Vidljivost: greater than 10 km
2024/05/19 02:00 LQSA 190200Z VRB02KT CAVOK 14/12 Q1013
LDOS - Osijek, Hrvatksa
Ažurirano: 19/05/2024 04:00
Vedro
Vedro
 Pravac vetra J
Vetar: J 6 km/h
Temperatura: 14°C
Tačka rose: 10°C
Vlažnost: 77%
Pritisak: 1011 hPa
Pregled: Vedro
Vidljivost: greater than 10 km
2024/05/19 02:00 LDOS 190200Z 17003KT CAVOK 14/10 Q1011